EZY85VF LMML-EGGD
Flight info
| Callsign | EZY85VF |
|---|---|
| Flight time | N/A |
| Altitude | 36000 |
| Route | GZO M622 SOPIR DCT MABOX DCT ADEXI DCT RUGOX DCT MADKA DCT AJO DCT OMEDA DCT MERLU DCT PIGOS DCT BARSO DCT OKTET DCT GIPNO DCT BULOL DCT IDAVO DCT BAGBI DCT SIZZA DCT LAULY DCT BRY DCT CLM DCT KOPOR DCT KESAX DCT KUNAV T421 ICTAM L179 SAWPE |
| Aircraft | A320/M-SDE2E3FGHIJ1RWXYZ/LB1 |
Departure
| Time | 2026-05-04 15:03 |
|---|---|
| Airport | Malta International Airport (LMML) |
Arrival
| Time | N/A |
|---|---|
| Airport | Bristol Airport (EGGD) |
| Time | Latitude | Longitude | Altitude | Speed | Heading |
|---|---|---|---|---|---|
| 2026-05-04 14:28 | 35.84862 | 14.49455 | 259 ft | 0 kts | 359° |
| 2026-05-04 14:37 | 35.84861 | 14.49455 | 259 ft | 0 kts | 359° |
| 2026-05-04 14:57 | 35.84868 | 14.49450 | 258 ft | 3 kts | 322° |
| 2026-05-04 14:57 | 35.84866 | 14.49414 | 258 ft | 6 kts | 236° |
| 2026-05-04 14:57 | 35.84869 | 14.49350 | 258 ft | 3 kts | 312° |
| 2026-05-04 14:57 | 35.84871 | 14.49349 | 258 ft | 1 kts | 312° |
| 2026-05-04 14:58 | 35.84883 | 14.49331 | 258 ft | 4 kts | 312° |
| 2026-05-04 14:58 | 35.84911 | 14.49296 | 258 ft | 7 kts | 315° |
| 2026-05-04 14:58 | 35.84938 | 14.49231 | 258 ft | 10 kts | 283° |
| 2026-05-04 14:58 | 35.84911 | 14.49157 | 258 ft | 7 kts | 231° |
| 2026-05-04 14:59 | 35.84904 | 14.49108 | 258 ft | 5 kts | 283° |
| 2026-05-04 14:59 | 35.84921 | 14.49078 | 258 ft | 4 kts | 309° |
| 2026-05-04 14:59 | 35.84966 | 14.48999 | 258 ft | 8 kts | 298° |
| 2026-05-04 15:00 | 35.84989 | 14.48922 | 258 ft | 10 kts | 283° |
| 2026-05-04 15:00 | 35.84992 | 14.48907 | 258 ft | 0 kts | 284° |
| 2026-05-04 15:00 | 35.84992 | 14.48904 | 258 ft | 2 kts | 284° |
| 2026-05-04 15:01 | 35.85005 | 14.48840 | 259 ft | 0 kts | 284° |
| 2026-05-04 15:01 | 35.85011 | 14.48813 | 260 ft | 9 kts | 284° |
| 2026-05-04 15:01 | 35.85036 | 14.48714 | 263 ft | 11 kts | 289° |
| 2026-05-04 15:01 | 35.85062 | 14.48650 | 266 ft | 6 kts | 296° |
| 2026-05-04 15:02 | 35.85051 | 14.48618 | 266 ft | 8 kts | 163° |
| 2026-05-04 15:02 | 35.84919 | 14.48768 | 258 ft | 61 kts | 135° |
| 2026-05-04 15:02 | 35.84436 | 14.49369 | 259 ft | 133 kts | 134° |
| 2026-05-04 15:02 | 35.83687 | 14.50287 | 643 ft | 158 kts | 137° |
| 2026-05-04 15:03 | 35.82910 | 14.51266 | 1417 ft | 160 kts | 144° |
| 2026-05-04 15:03 | 35.81846 | 14.51725 | 1977 ft | 171 kts | 179° |
| 2026-05-04 15:03 | 35.80629 | 14.51357 | 2256 ft | 193 kts | 211° |
| 2026-05-04 15:03 | 35.79647 | 14.50142 | 2552 ft | 213 kts | 237° |
| 2026-05-04 15:04 | 35.78855 | 14.48475 | 2868 ft | 238 kts | 238° |
| 2026-05-04 15:04 | 35.78005 | 14.46633 | 3347 ft | 255 kts | 246° |
| 2026-05-04 15:04 | 35.77660 | 14.44476 | 4053 ft | 263 kts | 273° |
| 2026-05-04 15:04 | 35.78183 | 14.42322 | 4833 ft | 268 kts | 302° |
| 2026-05-04 15:05 | 35.79483 | 14.40689 | 5620 ft | 270 kts | 324° |
| 2026-05-04 15:05 | 35.81018 | 14.39360 | 6475 ft | 271 kts | 325° |
| 2026-05-04 15:05 | 35.82570 | 14.38033 | 7254 ft | 272 kts | 325° |
| 2026-05-04 15:05 | 35.84126 | 14.36707 | 8073 ft | 272 kts | 325° |
| 2026-05-04 15:06 | 35.85692 | 14.35369 | 8805 ft | 276 kts | 324° |
| 2026-05-04 15:06 | 35.87281 | 14.34006 | 9516 ft | 281 kts | 324° |
| 2026-05-04 15:06 | 35.88891 | 14.32623 | 10263 ft | 283 kts | 324° |
| 2026-05-04 15:07 | 35.92323 | 14.29661 | 10751 ft | 324 kts | 324° |
| 2026-05-04 15:07 | 35.94229 | 14.28008 | 10875 ft | 345 kts | 324° |
| 2026-05-04 15:07 | 35.96251 | 14.26253 | 10997 ft | 365 kts | 324° |
| 2026-05-04 15:07 | 35.98378 | 14.24407 | 11134 ft | 382 kts | 324° |
| 2026-05-04 15:08 | 36.00581 | 14.22498 | 11522 ft | 390 kts | 324° |
| 2026-05-04 15:08 | 36.02810 | 14.20568 | 12026 ft | 393 kts | 324° |
| 2026-05-04 15:08 | 36.05060 | 14.18620 | 12581 ft | 396 kts | 324° |
| 2026-05-04 15:08 | 36.07318 | 14.16664 | 13151 ft | 398 kts | 324° |
| 2026-05-04 15:09 | 36.09590 | 14.14695 | 13703 ft | 400 kts | 323° |
| 2026-05-04 15:09 | 36.11868 | 14.12715 | 14216 ft | 401 kts | 323° |
| 2026-05-04 15:09 | 36.14158 | 14.10722 | 14670 ft | 404 kts | 323° |
| 2026-05-04 15:10 | 36.17990 | 14.07385 | 15430 ft | 407 kts | 323° |
| 2026-05-04 15:10 | 36.20313 | 14.05359 | 15862 ft | 409 kts | 323° |
| 2026-05-04 15:10 | 36.25758 | 14.00604 | 16871 ft | 415 kts | 324° |
| 2026-05-04 15:11 | 36.28123 | 13.98540 | 17295 ft | 417 kts | 324° |
| 2026-05-04 15:11 | 36.30498 | 13.96467 | 17714 ft | 419 kts | 324° |
| 2026-05-04 15:11 | 36.32889 | 13.94376 | 18128 ft | 421 kts | 324° |
| 2026-05-04 15:11 | 36.34508 | 13.92957 | 18399 ft | 423 kts | 324° |
| 2026-05-04 15:12 | 36.36918 | 13.90844 | 18740 ft | 425 kts | 323° |
| 2026-05-04 15:12 | 36.39339 | 13.88723 | 19078 ft | 427 kts | 323° |
| 2026-05-04 15:12 | 36.41768 | 13.86593 | 19411 ft | 429 kts | 323° |
| 2026-05-04 15:12 | 36.44210 | 13.84452 | 19758 ft | 430 kts | 323° |
| 2026-05-04 15:13 | 36.46661 | 13.82302 | 20094 ft | 432 kts | 323° |
| 2026-05-04 15:13 | 36.49119 | 13.80140 | 20404 ft | 434 kts | 323° |
| 2026-05-04 15:13 | 36.51586 | 13.77965 | 20719 ft | 435 kts | 323° |
| 2026-05-04 15:13 | 36.54051 | 13.75768 | 21029 ft | 437 kts | 323° |
| 2026-05-04 15:14 | 36.56521 | 13.73546 | 21330 ft | 439 kts | 322° |
| 2026-05-04 15:14 | 36.58958 | 13.71339 | 21623 ft | 440 kts | 322° |
| 2026-05-04 15:14 | 36.61435 | 13.69092 | 21910 ft | 442 kts | 322° |
| 2026-05-04 15:14 | 36.63926 | 13.66837 | 22191 ft | 443 kts | 322° |
| 2026-05-04 15:15 | 36.66427 | 13.64581 | 22465 ft | 445 kts | 322° |
| 2026-05-04 15:15 | 36.68940 | 13.62318 | 22731 ft | 447 kts | 322° |
| 2026-05-04 15:15 | 36.71461 | 13.60053 | 23032 ft | 447 kts | 322° |
| 2026-05-04 15:16 | 36.76525 | 13.55501 | 23588 ft | 450 kts | 322° |
| 2026-05-04 15:16 | 36.79059 | 13.53210 | 23859 ft | 450 kts | 322° |
| 2026-05-04 15:16 | 36.84105 | 13.48630 | 24519 ft | 447 kts | 322° |
| 2026-05-04 15:17 | 36.86619 | 13.46344 | 24804 ft | 447 kts | 322° |
| 2026-05-04 15:17 | 36.91645 | 13.41780 | 25444 ft | 445 kts | 322° |
| 2026-05-04 15:17 | 36.94146 | 13.39507 | 25783 ft | 444 kts | 322° |
| 2026-05-04 15:18 | 36.96638 | 13.37243 | 26138 ft | 442 kts | 322° |
| 2026-05-04 15:18 | 36.99122 | 13.34987 | 26516 ft | 440 kts | 322° |
| 2026-05-04 15:18 | 37.01592 | 13.32740 | 26880 ft | 438 kts | 322° |
| 2026-05-04 15:19 | 37.06505 | 13.28254 | 27604 ft | 436 kts | 322° |
| 2026-05-04 15:19 | 37.08948 | 13.26021 | 27968 ft | 434 kts | 322° |
| 2026-05-04 15:19 | 37.13810 | 13.21571 | 28692 ft | 431 kts | 322° |
| 2026-05-04 15:20 | 37.16230 | 13.19356 | 29054 ft | 430 kts | 322° |
| 2026-05-04 15:20 | 37.18643 | 13.17146 | 29422 ft | 429 kts | 322° |
| 2026-05-04 15:20 | 37.21045 | 13.14946 | 29790 ft | 427 kts | 322° |
| 2026-05-04 15:20 | 37.23441 | 13.12752 | 30194 ft | 425 kts | 322° |
| 2026-05-04 15:21 | 37.25829 | 13.10563 | 30464 ft | 425 kts | 322° |
| 2026-05-04 15:21 | 37.28213 | 13.08376 | 30757 ft | 424 kts | 321° |
| 2026-05-04 15:21 | 37.32959 | 13.04008 | 31345 ft | 422 kts | 321° |
| 2026-05-04 15:22 | 37.35325 | 13.01829 | 31641 ft | 421 kts | 321° |
| 2026-05-04 15:22 | 37.37706 | 12.99691 | 31955 ft | 420 kts | 322° |
| 2026-05-04 15:22 | 37.42503 | 12.95519 | 32528 ft | 418 kts | 322° |
| 2026-05-04 15:23 | 37.44899 | 12.93448 | 32813 ft | 417 kts | 322° |
| 2026-05-04 15:23 | 37.47251 | 12.91402 | 33104 ft | 416 kts | 322° |
| 2026-05-04 15:23 | 37.49621 | 12.89327 | 33447 ft | 414 kts | 322° |
| 2026-05-04 15:23 | 37.51974 | 12.87256 | 33809 ft | 411 kts | 321° |
| 2026-05-04 15:24 | 37.56638 | 12.83135 | 34372 ft | 408 kts | 321° |
| 2026-05-04 15:24 | 37.61280 | 12.79024 | 34859 ft | 407 kts | 321° |
| 2026-05-04 15:25 | 37.63592 | 12.76975 | 35078 ft | 406 kts | 321° |
| 2026-05-04 15:25 | 37.65911 | 12.74921 | 35216 ft | 408 kts | 321° |
| 2026-05-04 15:25 | 37.68237 | 12.72863 | 35371 ft | 409 kts | 321° |
| 2026-05-04 15:26 | 37.72890 | 12.68739 | 35779 ft | 408 kts | 321° |
| 2026-05-04 15:26 | 37.75209 | 12.66679 | 35984 ft | 407 kts | 321° |
| 2026-05-04 15:26 | 37.79861 | 12.62552 | 36142 ft | 412 kts | 321° |
| 2026-05-04 15:27 | 37.86925 | 12.56266 | 36139 ft | 417 kts | 321° |
| 2026-05-04 15:28 | 37.94100 | 12.49858 | 36139 ft | 422 kts | 321° |
| 2026-05-04 15:29 | 38.01307 | 12.43423 | 36128 ft | 422 kts | 321° |
| 2026-05-04 15:30 | 38.18087 | 12.28364 | 36109 ft | 423 kts | 321° |
| 2026-05-04 15:31 | 38.25292 | 12.21860 | 36136 ft | 424 kts | 321° |
| 2026-05-04 15:32 | 38.37302 | 12.10994 | 36120 ft | 423 kts | 321° |
| 2026-05-04 15:34 | 38.49296 | 12.00092 | 36107 ft | 424 kts | 320° |
| 2026-05-04 15:34 | 38.56503 | 11.93521 | 36116 ft | 424 kts | 320° |
| 2026-05-04 15:35 | 38.63680 | 11.86970 | 36107 ft | 424 kts | 320° |
| 2026-05-04 15:36 | 38.70883 | 11.80375 | 36108 ft | 424 kts | 320° |
| 2026-05-04 15:36 | 38.75682 | 11.75967 | 36108 ft | 424 kts | 320° |
| 2026-05-04 15:37 | 38.80475 | 11.71550 | 36116 ft | 424 kts | 320° |
| 2026-05-04 15:37 | 38.85270 | 11.67128 | 36117 ft | 424 kts | 320° |
| 2026-05-04 15:38 | 38.90064 | 11.62708 | 36112 ft | 425 kts | 320° |
| 2026-05-04 15:38 | 38.94863 | 11.58272 | 36106 ft | 425 kts | 320° |
| 2026-05-04 15:39 | 38.99660 | 11.53835 | 36101 ft | 425 kts | 320° |
| 2026-05-04 15:40 | 39.06858 | 11.47175 | 36113 ft | 425 kts | 320° |
| 2026-05-04 15:40 | 39.11645 | 11.42719 | 36103 ft | 425 kts | 320° |
| 2026-05-04 15:41 | 39.16427 | 11.38259 | 36105 ft | 424 kts | 320° |
| 2026-05-04 15:41 | 39.21212 | 11.33796 | 36104 ft | 424 kts | 320° |
| 2026-05-04 15:42 | 39.25997 | 11.29337 | 36121 ft | 424 kts | 320° |
| 2026-05-04 15:42 | 39.30779 | 11.24862 | 36120 ft | 424 kts | 320° |
| 2026-05-04 15:43 | 39.35548 | 11.20386 | 36113 ft | 424 kts | 320° |
| 2026-05-04 15:43 | 39.40315 | 11.15899 | 36109 ft | 424 kts | 320° |
| 2026-05-04 15:44 | 39.45076 | 11.11406 | 36106 ft | 424 kts | 320° |
| 2026-05-04 15:44 | 39.49837 | 11.06914 | 36104 ft | 424 kts | 320° |
| 2026-05-04 15:45 | 39.54602 | 11.02422 | 36126 ft | 423 kts | 320° |
| 2026-05-04 15:45 | 39.59358 | 10.97922 | 36113 ft | 423 kts | 320° |
| 2026-05-04 15:46 | 39.64103 | 10.93416 | 36112 ft | 423 kts | 320° |
| 2026-05-04 15:46 | 39.68854 | 10.88909 | 36110 ft | 423 kts | 320° |
| 2026-05-04 15:47 | 39.73601 | 10.84395 | 36104 ft | 423 kts | 320° |
| 2026-05-04 15:47 | 39.78343 | 10.79881 | 36111 ft | 422 kts | 320° |
| 2026-05-04 15:48 | 39.83080 | 10.75365 | 36108 ft | 422 kts | 320° |
| 2026-05-04 15:48 | 39.90175 | 10.68593 | 36110 ft | 421 kts | 320° |
| 2026-05-04 15:49 | 39.94865 | 10.64103 | 36106 ft | 421 kts | 320° |
| 2026-05-04 15:49 | 39.99616 | 10.59545 | 36112 ft | 421 kts | 319° |
| 2026-05-04 15:50 | 40.04291 | 10.55031 | 36109 ft | 421 kts | 318° |
| 2026-05-04 15:50 | 40.09031 | 10.50452 | 36100 ft | 421 kts | 318° |
| 2026-05-04 15:51 | 40.13745 | 10.45898 | 36101 ft | 421 kts | 318° |
| 2026-05-04 15:51 | 40.18427 | 10.41373 | 36090 ft | 421 kts | 318° |
| 2026-05-04 15:52 | 40.23137 | 10.36811 | 36089 ft | 421 kts | 318° |
| 2026-05-04 15:52 | 40.27848 | 10.32242 | 36090 ft | 421 kts | 318° |
| 2026-05-04 15:53 | 40.32555 | 10.27669 | 36084 ft | 421 kts | 318° |
| 2026-05-04 15:53 | 40.37262 | 10.23088 | 36083 ft | 421 kts | 318° |
| 2026-05-04 15:54 | 40.41965 | 10.18496 | 36082 ft | 421 kts | 318° |
| 2026-05-04 15:54 | 40.46671 | 10.13898 | 36089 ft | 422 kts | 317° |
| 2026-05-04 15:55 | 40.51389 | 10.09281 | 36060 ft | 424 kts | 317° |
| 2026-05-04 15:55 | 40.56117 | 10.04641 | 36055 ft | 425 kts | 317° |
| 2026-05-04 15:56 | 40.60852 | 9.99985 | 36059 ft | 426 kts | 317° |
| 2026-05-04 15:56 | 40.65596 | 9.95311 | 36063 ft | 426 kts | 317° |
| 2026-05-04 15:57 | 40.69539 | 9.91425 | 36062 ft | 426 kts | 317° |
| 2026-05-04 15:57 | 40.74290 | 9.86739 | 36075 ft | 427 kts | 317° |
| 2026-05-04 15:58 | 40.79039 | 9.82041 | 36074 ft | 427 kts | 317° |
| 2026-05-04 15:58 | 40.83790 | 9.77331 | 36069 ft | 427 kts | 317° |
| 2026-05-04 15:59 | 40.88546 | 9.72611 | 36066 ft | 428 kts | 317° |
| 2026-05-04 15:59 | 40.93301 | 9.67876 | 36065 ft | 428 kts | 316° |
| 2026-05-04 16:00 | 40.98052 | 9.63138 | 36077 ft | 428 kts | 316° |
| 2026-05-04 16:00 | 41.02809 | 9.58391 | 36072 ft | 428 kts | 316° |
| 2026-05-04 16:01 | 41.07564 | 9.53641 | 36062 ft | 428 kts | 316° |
| 2026-05-04 16:01 | 41.12318 | 9.48878 | 36058 ft | 428 kts | 316° |
| 2026-05-04 16:02 | 41.17067 | 9.44101 | 36067 ft | 428 kts | 316° |
| 2026-05-04 16:03 | 41.24190 | 9.36913 | 36078 ft | 429 kts | 315° |
| 2026-05-04 16:03 | 41.28858 | 9.31998 | 36074 ft | 427 kts | 313° |
| 2026-05-04 16:04 | 41.33375 | 9.26886 | 36078 ft | 426 kts | 312° |
| 2026-05-04 16:04 | 41.40143 | 9.19193 | 36078 ft | 427 kts | 313° |
| 2026-05-04 16:05 | 41.44681 | 9.14097 | 36096 ft | 426 kts | 313° |
| 2026-05-04 16:06 | 41.51486 | 9.06470 | 36105 ft | 426 kts | 312° |
| 2026-05-04 16:07 | 41.60539 | 8.96231 | 36064 ft | 427 kts | 312° |
| 2026-05-04 16:08 | 41.69571 | 8.85984 | 36061 ft | 428 kts | 313° |
| 2026-05-04 16:09 | 41.81646 | 8.74099 | 36052 ft | 440 kts | 323° |
| 2026-05-04 16:10 | 41.92411 | 8.66190 | 36045 ft | 443 kts | 323° |
| 2026-05-04 16:11 | 42.03258 | 8.58196 | 36038 ft | 445 kts | 323° |
| 2026-05-04 16:12 | 42.19574 | 8.46112 | 36053 ft | 447 kts | 323° |
| 2026-05-04 16:13 | 42.30452 | 8.38003 | 36054 ft | 447 kts | 323° |
| 2026-05-04 16:14 | 42.41345 | 8.29862 | 36050 ft | 448 kts | 323° |
| 2026-05-04 16:16 | 42.54995 | 8.19621 | 36035 ft | 449 kts | 322° |
| 2026-05-04 16:17 | 42.68658 | 8.09299 | 36042 ft | 450 kts | 322° |
| 2026-05-04 16:18 | 42.79607 | 8.01020 | 36055 ft | 450 kts | 322° |
| 2026-05-04 16:19 | 42.93310 | 7.90590 | 36024 ft | 453 kts | 322° |
| 2026-05-04 16:20 | 43.07029 | 7.80094 | 36037 ft | 454 kts | 322° |
| 2026-05-04 16:22 | 43.20788 | 7.69480 | 36065 ft | 454 kts | 322° |
| 2026-05-04 16:23 | 43.37257 | 7.56682 | 36071 ft | 453 kts | 322° |
| 2026-05-04 16:25 | 43.53679 | 7.43818 | 36048 ft | 453 kts | 322° |
| 2026-05-04 16:26 | 43.72362 | 7.27968 | 36070 ft | 449 kts | 317° |
| 2026-05-04 16:28 | 43.85339 | 7.15901 | 36081 ft | 450 kts | 319° |
| 2026-05-04 16:29 | 44.03596 | 6.99043 | 36102 ft | 451 kts | 319° |
| 2026-05-04 16:31 | 44.16641 | 6.86924 | 36101 ft | 451 kts | 319° |
| 2026-05-04 16:32 | 44.32297 | 6.72249 | 36095 ft | 453 kts | 319° |
| 2026-05-04 16:33 | 44.42758 | 6.62393 | 36105 ft | 454 kts | 319° |
| 2026-05-04 16:34 | 44.50618 | 6.54970 | 36095 ft | 455 kts | 319° |
| 2026-05-04 16:35 | 44.66350 | 6.40011 | 36103 ft | 457 kts | 319° |
| 2026-05-04 16:36 | 44.74245 | 6.32492 | 36096 ft | 457 kts | 319° |
| 2026-05-04 16:37 | 44.82122 | 6.24936 | 36097 ft | 457 kts | 319° |
| 2026-05-04 16:38 | 44.92620 | 6.14839 | 36077 ft | 457 kts | 319° |
| 2026-05-04 16:39 | 45.05739 | 6.02151 | 36061 ft | 459 kts | 319° |
| 2026-05-04 16:40 | 45.16281 | 5.91898 | 36031 ft | 460 kts | 319° |
| 2026-05-04 16:41 | 45.29475 | 5.79033 | 36044 ft | 460 kts | 319° |
| 2026-05-04 16:43 | 45.42689 | 5.66058 | 36024 ft | 463 kts | 319° |
| 2026-05-04 16:43 | 45.49748 | 5.59094 | 36029 ft | 464 kts | 319° |
| 2026-05-04 16:45 | 45.66780 | 5.45364 | 36046 ft | 472 kts | 327° |
| 2026-05-04 16:46 | 45.81367 | 5.34492 | 36031 ft | 473 kts | 327° |
| 2026-05-04 16:47 | 45.93053 | 5.25726 | 36031 ft | 474 kts | 327° |
| 2026-05-04 16:48 | 46.04744 | 5.16907 | 36019 ft | 475 kts | 327° |
| 2026-05-04 16:49 | 46.16462 | 5.08047 | 36000 ft | 477 kts | 327° |
| 2026-05-04 16:50 | 46.28215 | 4.99121 | 36006 ft | 478 kts | 327° |
| 2026-05-04 16:51 | 46.37035 | 4.92373 | 35993 ft | 478 kts | 327° |
| 2026-05-04 16:52 | 46.48811 | 4.83334 | 36015 ft | 479 kts | 327° |
| 2026-05-04 16:53 | 46.57642 | 4.76516 | 35987 ft | 480 kts | 328° |
| 2026-05-04 16:54 | 46.69449 | 4.67407 | 35965 ft | 480 kts | 328° |
| 2026-05-04 16:55 | 46.87145 | 4.53634 | 35960 ft | 481 kts | 327° |
| 2026-05-04 16:56 | 47.01822 | 4.42088 | 35964 ft | 480 kts | 327° |
| 2026-05-04 16:57 | 47.10646 | 4.35149 | 35962 ft | 480 kts | 328° |
| 2026-05-04 16:58 | 47.22404 | 4.25843 | 35946 ft | 480 kts | 327° |
| 2026-05-04 17:00 | 47.40038 | 4.11798 | 35953 ft | 481 kts | 327° |
| 2026-05-04 17:01 | 47.54743 | 3.99971 | 35944 ft | 482 kts | 327° |
| 2026-05-04 17:02 | 47.66534 | 3.90480 | 35938 ft | 483 kts | 327° |
| 2026-05-04 17:03 | 47.75374 | 3.83319 | 35937 ft | 483 kts | 327° |
| 2026-05-04 17:03 | 47.84226 | 3.76106 | 35929 ft | 484 kts | 327° |
| 2026-05-04 17:04 | 47.96008 | 3.66377 | 35941 ft | 483 kts | 325° |
| 2026-05-04 17:05 | 48.07223 | 3.55485 | 35926 ft | 482 kts | 322° |
| 2026-05-04 17:06 | 48.15671 | 3.47259 | 35936 ft | 483 kts | 323° |
| 2026-05-04 17:07 | 48.23259 | 3.39996 | 35957 ft | 484 kts | 323° |
| 2026-05-04 17:07 | 48.29828 | 3.33658 | 35950 ft | 483 kts | 323° |
| 2026-05-04 17:08 | 48.38279 | 3.25421 | 35950 ft | 483 kts | 323° |
| 2026-05-04 17:09 | 48.43911 | 3.19929 | 35949 ft | 482 kts | 323° |
| 2026-05-04 17:09 | 48.49539 | 3.14424 | 35946 ft | 482 kts | 323° |
| 2026-05-04 17:10 | 48.63598 | 3.00619 | 35971 ft | 482 kts | 323° |
| 2026-05-04 17:11 | 48.69212 | 2.95081 | 35966 ft | 482 kts | 323° |
| 2026-05-04 17:12 | 48.77624 | 2.86755 | 35959 ft | 481 kts | 323° |
| 2026-05-04 17:13 | 48.91580 | 2.72862 | 35960 ft | 481 kts | 323° |
| 2026-05-04 17:14 | 49.02769 | 2.61653 | 35973 ft | 481 kts | 323° |
| 2026-05-04 17:15 | 49.11135 | 2.53221 | 35972 ft | 480 kts | 323° |
| 2026-05-04 17:16 | 49.22321 | 2.41912 | 35962 ft | 480 kts | 323° |
| 2026-05-04 17:17 | 49.33450 | 2.30599 | 35964 ft | 480 kts | 323° |
| 2026-05-04 17:18 | 49.44570 | 2.19263 | 35979 ft | 480 kts | 323° |
| 2026-05-04 17:19 | 49.55644 | 2.07861 | 35977 ft | 478 kts | 324° |
| 2026-05-04 17:20 | 49.66681 | 1.96425 | 35967 ft | 477 kts | 323° |
| 2026-05-04 17:20 | 49.74943 | 1.87835 | 35964 ft | 477 kts | 323° |
| 2026-05-04 17:21 | 49.85952 | 1.76345 | 35975 ft | 477 kts | 324° |
| 2026-05-04 17:22 | 49.91461 | 1.70578 | 35976 ft | 478 kts | 323° |
| 2026-05-04 17:23 | 50.02466 | 1.58989 | 35978 ft | 478 kts | 323° |
| 2026-05-04 17:24 | 50.10711 | 1.50256 | 35974 ft | 478 kts | 323° |
| 2026-05-04 17:25 | 50.21712 | 1.38574 | 35993 ft | 478 kts | 323° |
| 2026-05-04 17:26 | 50.32671 | 1.26842 | 36001 ft | 477 kts | 323° |
| 2026-05-04 17:27 | 50.46280 | 1.12184 | 36000 ft | 476 kts | 323° |
| 2026-05-04 17:28 | 50.57003 | 1.00049 | 36004 ft | 474 kts | 319° |
| 2026-05-04 17:29 | 50.71540 | 0.81611 | 36008 ft | 474 kts | 320° |
| 2026-05-04 17:31 | 50.84491 | 0.65468 | 36013 ft | 474 kts | 319° |
| 2026-05-04 17:32 | 50.97296 | 0.49216 | 37131 ft | 429 kts | 318° |
| 2026-05-04 17:33 | 51.04398 | 0.40240 | 36326 ft | 458 kts | 320° |
| 2026-05-04 17:33 | 51.06928 | 0.37056 | 36033 ft | 468 kts | 319° |
| 2026-05-04 17:34 | 51.14456 | 0.26966 | 35999 ft | 471 kts | 307° |
| 2026-05-04 17:34 | 51.16232 | 0.22629 | 36005 ft | 467 kts | 292° |
| 2026-05-04 17:35 | 51.22649 | -0.01119 | 36014 ft | 467 kts | 290° |
| 2026-05-04 17:36 | 51.25187 | -0.10678 | 35997 ft | 468 kts | 291° |
| 2026-05-04 17:36 | 51.27739 | -0.20254 | 35997 ft | 469 kts | 291° |
| 2026-05-04 17:37 | 51.30291 | -0.29855 | 36004 ft | 470 kts | 290° |
| 2026-05-04 17:37 | 51.32829 | -0.39483 | 36028 ft | 470 kts | 290° |
| 2026-05-04 17:38 | 51.35357 | -0.49135 | 36040 ft | 470 kts | 290° |
| 2026-05-04 17:38 | 51.37861 | -0.58720 | 36044 ft | 470 kts | 290° |
| 2026-05-04 17:39 | 51.41645 | -0.73254 | 36041 ft | 469 kts | 290° |
| 2026-05-04 17:39 | 51.44128 | -0.82838 | 35995 ft | 468 kts | 290° |
| 2026-05-04 17:40 | 51.45370 | -0.87641 | 35343 ft | 463 kts | 290° |
| 2026-05-04 17:40 | 51.46600 | -0.92413 | 34136 ft | 464 kts | 290° |
| 2026-05-04 17:40 | 51.47823 | -0.97173 | 33125 ft | 457 kts | 290° |
| 2026-05-04 17:40 | 51.49019 | -1.01836 | 32235 ft | 448 kts | 290° |
| 2026-05-04 17:41 | 51.50188 | -1.06421 | 31261 ft | 441 kts | 289° |
| 2026-05-04 17:41 | 51.51334 | -1.10936 | 30375 ft | 434 kts | 289° |
| 2026-05-04 17:41 | 51.52415 | -1.15460 | 29287 ft | 433 kts | 284° |
| 2026-05-04 17:41 | 51.53161 | -1.20144 | 28263 ft | 433 kts | 277° |
| 2026-05-04 17:42 | 51.53718 | -1.24912 | 27275 ft | 436 kts | 278° |
| 2026-05-04 17:42 | 51.54283 | -1.29717 | 26166 ft | 439 kts | 278° |
| 2026-05-04 17:42 | 51.54856 | -1.34556 | 24997 ft | 442 kts | 278° |
| 2026-05-04 17:42 | 51.55433 | -1.39415 | 23911 ft | 443 kts | 278° |
| 2026-05-04 17:43 | 51.56012 | -1.44282 | 22894 ft | 445 kts | 278° |
| 2026-05-04 17:43 | 51.56585 | -1.49146 | 22097 ft | 441 kts | 278° |
| 2026-05-04 17:43 | 51.57148 | -1.53964 | 21326 ft | 437 kts | 278° |
| 2026-05-04 17:43 | 51.57701 | -1.58753 | 20551 ft | 434 kts | 278° |
| 2026-05-04 17:44 | 51.58244 | -1.63512 | 19790 ft | 432 kts | 278° |
| 2026-05-04 17:44 | 51.58750 | -1.68253 | 19030 ft | 430 kts | 277° |
| 2026-05-04 17:44 | 51.59154 | -1.73005 | 18296 ft | 428 kts | 275° |
| 2026-05-04 17:44 | 51.59478 | -1.77681 | 18050 ft | 412 kts | 274° |
| 2026-05-04 17:45 | 51.59748 | -1.82177 | 17886 ft | 396 kts | 271° |
| 2026-05-04 17:45 | 51.59639 | -1.86473 | 17611 ft | 384 kts | 261° |
| 2026-05-04 17:45 | 51.59061 | -1.90621 | 17357 ft | 377 kts | 251° |
| 2026-05-04 17:45 | 51.58081 | -1.94457 | 17096 ft | 366 kts | 241° |
| 2026-05-04 17:46 | 51.56785 | -1.97899 | 16831 ft | 356 kts | 236° |
| 2026-05-04 17:46 | 51.55501 | -2.01297 | 16550 ft | 363 kts | 244° |
| 2026-05-04 17:46 | 51.54675 | -2.05193 | 15695 ft | 375 kts | 254° |
| 2026-05-04 17:46 | 51.54001 | -2.09327 | 14580 ft | 388 kts | 256° |
| 2026-05-04 17:47 | 51.53731 | -2.13695 | 13489 ft | 400 kts | 269° |
| 2026-05-04 17:47 | 51.53791 | -2.18177 | 12612 ft | 401 kts | 270° |
| 2026-05-04 17:47 | 51.53871 | -2.22634 | 11886 ft | 398 kts | 270° |
| 2026-05-04 17:47 | 51.53956 | -2.27050 | 11200 ft | 393 kts | 270° |
| 2026-05-04 17:48 | 51.54038 | -2.31427 | 10539 ft | 390 kts | 270° |
| 2026-05-04 17:48 | 51.54128 | -2.35709 | 10269 ft | 375 kts | 270° |
| 2026-05-04 17:48 | 51.54217 | -2.39793 | 10138 ft | 357 kts | 270° |
| 2026-05-04 17:48 | 51.54314 | -2.43688 | 10016 ft | 341 kts | 271° |
| 2026-05-04 17:49 | 51.54400 | -2.47410 | 9891 ft | 326 kts | 270° |
| 2026-05-04 17:49 | 51.54491 | -2.50977 | 9756 ft | 313 kts | 271° |
| 2026-05-04 17:49 | 51.54563 | -2.54404 | 9621 ft | 301 kts | 270° |
| 2026-05-04 17:49 | 51.54635 | -2.57710 | 9488 ft | 291 kts | 271° |
| 2026-05-04 17:50 | 51.54711 | -2.60901 | 9313 ft | 282 kts | 271° |
| 2026-05-04 17:50 | 51.54773 | -2.63999 | 8983 ft | 280 kts | 270° |
| 2026-05-04 17:50 | 51.54842 | -2.67109 | 8656 ft | 277 kts | 270° |
| 2026-05-04 17:50 | 51.54905 | -2.70202 | 8277 ft | 276 kts | 270° |
| 2026-05-04 17:51 | 51.54962 | -2.73283 | 7891 ft | 275 kts | 270° |
| 2026-05-04 17:51 | 51.55009 | -2.76350 | 7511 ft | 274 kts | 270° |
| 2026-05-04 17:51 | 51.55049 | -2.79345 | 7375 ft | 263 kts | 268° |
| 2026-05-04 17:51 | 51.54684 | -2.82129 | 7194 ft | 251 kts | 245° |
| 2026-05-04 17:52 | 51.53905 | -2.84576 | 7067 ft | 240 kts | 240° |
| 2026-05-04 17:52 | 51.53131 | -2.86842 | 6939 ft | 222 kts | 240° |
| 2026-05-04 17:52 | 51.52408 | -2.88946 | 6733 ft | 211 kts | 241° |
| 2026-05-04 17:52 | 51.51695 | -2.90990 | 6485 ft | 208 kts | 240° |
| 2026-05-04 17:53 | 51.50929 | -2.92954 | 6208 ft | 207 kts | 227° |
| 2026-05-04 17:53 | 51.49820 | -2.94406 | 5910 ft | 207 kts | 207° |
| 2026-05-04 17:53 | 51.48502 | -2.95336 | 5607 ft | 207 kts | 201° |
| 2026-05-04 17:53 | 51.47156 | -2.96153 | 5319 ft | 207 kts | 200° |
| 2026-05-04 17:54 | 51.45804 | -2.96951 | 5037 ft | 207 kts | 200° |
| 2026-05-04 17:54 | 51.44439 | -2.97701 | 4734 ft | 207 kts | 194° |
| 2026-05-04 17:54 | 51.43033 | -2.98195 | 4458 ft | 207 kts | 191° |
| 2026-05-04 17:54 | 51.41613 | -2.98630 | 4168 ft | 208 kts | 190° |
| 2026-05-04 17:55 | 51.40190 | -2.99066 | 3872 ft | 209 kts | 190° |
| 2026-05-04 17:55 | 51.38758 | -2.99126 | 3593 ft | 205 kts | 160° |
| 2026-05-04 17:55 | 51.37661 | -2.97824 | 3315 ft | 197 kts | 115° |
| 2026-05-04 17:55 | 51.37485 | -2.95734 | 2921 ft | 194 kts | 73° |
| 2026-05-04 17:56 | 51.37864 | -2.93629 | 2551 ft | 199 kts | 76° |
| 2026-05-04 17:56 | 51.37753 | -2.91500 | 2487 ft | 190 kts | 108° |
| 2026-05-04 17:56 | 51.37476 | -2.89535 | 2485 ft | 173 kts | 82° |
| 2026-05-04 17:56 | 51.37663 | -2.87697 | 2392 ft | 165 kts | 84° |
| 2026-05-04 17:57 | 51.37725 | -2.85897 | 2208 ft | 159 kts | 84° |
| 2026-05-04 17:57 | 51.37787 | -2.84139 | 2005 ft | 157 kts | 84° |
| 2026-05-04 17:57 | 51.37853 | -2.82403 | 1798 ft | 155 kts | 83° |
| 2026-05-04 17:57 | 51.37921 | -2.80689 | 1606 ft | 152 kts | 84° |
| 2026-05-04 17:58 | 51.37985 | -2.79050 | 1381 ft | 143 kts | 82° |
| 2026-05-04 17:58 | 51.38047 | -2.77489 | 1185 ft | 141 kts | 84° |
| 2026-05-04 17:58 | 51.38108 | -2.75939 | 1011 ft | 136 kts | 84° |
| 2026-05-04 17:58 | 51.38167 | -2.74439 | 820 ft | 135 kts | 83° |
| 2026-05-04 17:59 | 51.38225 | -2.72947 | 645 ft | 131 kts | 84° |
| 2026-05-04 17:59 | 51.38276 | -2.71662 | 608 ft | 100 kts | 86° |